Time;durP1;ratioP1;P1;durP2;ratioP2;P2;SDS_P1;SDS_P2;PMS_P1;PMS_P2;Temp;Humidity;BMP_temperature;BMP_pressure;BME280_temperature;BME280_humidity;BME280_pressure;Samples;Min_cycle;Max_cycle;Signal;HPM_P1;HPM_P2
2022/03/18 00:00:54;;;;;;;;;23.00;23.00;;;;;8.96;60.38;103215.97;4979035;28;45295;-70
2022/03/18 00:03:22;;;;;;;;;27.33;22.33;;;;;8.83;60.39;103199.78;4976541;28;48118;-70
2022/03/18 00:05:48;;;;;;;;;29.00;22.33;;;;;9.01;59.85;103221.94;4976651;28;45655;-69
2022/03/18 00:08:15;;;;;;;;;31.33;28.00;;;;;9.00;59.77;103224.63;4978059;28;45504;-67
2022/03/18 00:10:40;;;;;;;;;28.67;26.33;;;;;8.82;60.39;103229.91;4978545;28;45607;-69
2022/03/18 00:13:06;;;;;;;;;25.33;23.33;;;;;8.64;60.41;103175.06;4977687;28;46454;-69
2022/03/18 00:15:31;;;;;;;;;24.00;20.67;;;;;8.97;60.37;103222.13;4976845;28;45415;-68
2022/03/18 00:17:57;;;;;;;;;35.00;24.67;;;;;8.86;60.01;103205.88;4975077;28;45507;-69
2022/03/18 00:20:25;;;;;;;;;31.67;28.33;;;;;8.97;59.92;103206.22;4959287;28;45403;-69
2022/03/18 00:23:46;;;;;;;;;32.00;29.67;;;;;8.86;60.19;103193.47;4958503;28;45741;-69
2022/03/18 00:26:12;;;;;;;;;32.00;25.00;;;;;8.86;60.52;103219.13;4958540;28;45430;-69
2022/03/18 00:28:39;;;;;;;;;29.00;25.67;;;;;8.67;61.10;103208.53;4958836;28;45429;-68
2022/03/18 00:31:06;;;;;;;;;30.33;26.33;;;;;8.67;61.14;103219.13;4974918;28;45335;-71
2022/03/18 00:33:33;;;;;;;;;31.00;26.00;;;;;8.45;61.08;103196.25;4976766;28;45509;-67
2022/03/18 00:35:59;;;;;;;;;29.00;26.67;;;;;8.42;61.44;103208.81;4977223;28;45305;-71
2022/03/18 00:38:24;;;;;;;;;26.67;24.67;;;;;8.38;61.18;103201.91;4978510;28;45289;-68
2022/03/18 00:40:50;;;;;;;;;31.67;27.33;;;;;8.55;61.53;103239.13;4977434;28;45400;-69
2022/03/18 00:43:16;;;;;;;;;35.33;31.33;;;;;8.45;61.36;103227.22;4997741;28;45832;-69
2022/03/18 00:45:42;;;;;;;;;34.75;32.25;;;;;7.96;61.94;103151.66;5006115;28;45417;-69
2022/03/18 00:53:35;;;;;;;;;28.33;27.33;;;;;8.20;62.48;103219.44;5015862;28;45838;-71
2022/03/18 00:56:01;;;;;;;;;36.33;29.67;;;;;8.28;62.37;103227.09;5016336;28;45562;-71
2022/03/18 00:58:26;;;;;;;;;30.67;27.00;;;;;8.05;62.64;103204.25;5016725;28;45827;-72
2022/03/18 01:00:51;;;;;;;;;32.00;23.67;;;;;8.24;62.14;103234.31;5017046;28;45361;-70
2022/03/18 01:03:17;;;;;;;;;31.00;24.67;;;;;8.15;62.23;103222.31;4997784;28;46614;-74
2022/03/18 01:05:42;;;;;;;;;33.33;29.33;;;;;8.09;62.80;103208.50;4997226;28;45430;-69
2022/03/18 01:08:08;;;;;;;;;35.33;32.00;;;;;8.08;62.85;103233.25;5017294;28;45311;-71
2022/03/18 01:10:34;;;;;;;;;27.33;26.00;;;;;8.17;62.96;103236.34;5014338;28;45569;-71
2022/03/18 01:12:59;;;;;;;;;26.33;26.33;;;;;8.14;62.70;103236.50;5016758;28;45499;-70
2022/03/18 01:15:25;;;;;;;;;32.33;28.33;;;;;8.18;62.91;103243.38;5016351;28;45391;-71
2022/03/18 01:17:51;;;;;;;;;33.00;31.33;;;;;8.02;62.92;103226.44;4998433;28;45492;-70
2022/03/18 01:20:16;;;;;;;;;35.33;31.33;;;;;8.02;63.09;103231.75;5016960;28;45518;-71
2022/03/18 01:22:42;;;;;;;;;30.33;28.00;;;;;7.56;63.46;103148.97;4998591;28;48256;-71
2022/03/18 01:25:08;;;;;;;;;34.67;29.33;;;;;8.17;63.18;103235.50;5016305;28;45322;-69
2022/03/18 01:27:34;;;;;;;;;29.00;27.33;;;;;8.29;62.77;103244.69;4998664;28;45466;-69
2022/03/18 01:30:00;;;;;;;;;23.00;22.33;;;;;8.35;62.63;103250.63;4998529;28;45354;-70
2022/03/18 01:32:26;;;;;;;;;37.67;35.33;;;;;8.27;62.69;103242.13;4979382;28;47334;-70
2022/03/18 01:34:51;;;;;;;;;31.67;30.00;;;;;7.98;63.02;103208.06;4996526;28;45575;-69
2022/03/18 01:37:17;;;;;;;;;35.33;32.00;;;;;8.13;62.94;103245.38;4996769;28;45341;-70
2022/03/18 01:39:42;;;;;;;;;36.33;32.00;;;;;7.97;63.68;103235.50;5014162;28;45378;-69
2022/03/18 01:42:08;;;;;;;;;38.67;33.00;;;;;7.93;63.61;103229.47;5016195;28;46249;-70
2022/03/18 01:44:42;;;;;;;;;35.33;30.00;;;;;7.46;64.23;103157.38;5016456;28;45341;-70
2022/03/18 01:47:09;;;;;;;;;30.67;27.67;;;;;7.78;64.27;103227.47;4981276;28;45330;-70
2022/03/18 01:49:34;;;;;;;;;33.67;31.33;;;;;7.82;63.49;103213.22;4995367;28;45698;-71
2022/03/18 01:52:00;;;;;;;;;29.67;28.33;;;;;8.05;63.93;103247.50;5016349;28;46370;-68
2022/03/18 01:54:44;;;;;;;;;28.67;25.00;;;;;8.00;63.62;103236.22;5017024;28;45366;-69
2022/03/18 01:57:11;;;;;;;;;41.33;33.67;;;;;8.06;63.83;103254.53;5016297;28;45359;-69
2022/03/18 01:59:37;;;;;;;;;32.00;30.33;;;;;7.90;63.27;103229.63;4998221;28;45254;-71
2022/03/18 02:02:03;;;;;;;;;36.33;34.33;;;;;7.17;63.36;103108.31;5015996;28;45304;-68
2022/03/18 02:04:29;;;;;;;;;32.33;31.67;;;;;8.05;63.92;103251.94;5016229;28;45358;-71
2022/03/18 02:06:55;;;;;;;;;32.33;30.00;;;;;8.08;63.81;103242.06;4998408;28;45247;-70
2022/03/18 02:09:20;;;;;;;;;36.67;32.00;;;;;8.09;63.34;103250.88;5016259;28;45310;-72
2022/03/18 02:11:46;;;;;;;;;30.67;30.00;;;;;7.99;63.52;103226.56;5016198;28;46076;-69
2022/03/18 02:14:12;;;;;;;;;25.00;24.67;;;;;8.05;63.75;103242.22;5015843;28;45336;-71
2022/03/18 02:16:41;;;;;;;;;32.67;26.00;;;;;8.06;63.62;103251.88;5016069;28;45539;-69
2022/03/18 02:19:07;;;;;;;;;35.33;32.33;;;;;8.00;63.78;103241.53;5015820;28;45479;-69
2022/03/18 02:21:35;;;;;;;;;36.00;32.33;;;;;8.05;63.34;103250.16;5011388;28;45796;-71
2022/03/18 02:24:00;;;;;;;;;33.33;31.00;;;;;8.02;63.51;103242.34;4995370;28;45626;-71
2022/03/18 02:26:26;;;;;;;;;35.00;32.67;;;;;7.97;63.69;103241.66;4998409;28;45239;-69
2022/03/18 02:28:52;;;;;;;;;42.33;34.67;;;;;7.97;62.97;103241.66;5019241;28;45383;-69
2022/03/18 02:31:18;;;;;;;;;39.33;31.67;;;;;7.96;63.30;103241.72;5019226;28;45824;-70
2022/03/18 02:33:44;;;;;;;;;38.33;33.00;;;;;7.93;63.92;103253.31;5018904;28;45343;-70
2022/03/18 02:36:09;;;;;;;;;35.67;31.33;;;;;7.88;63.79;103250.00;5001268;28;45265;-69
2022/03/18 02:38:35;;;;;;;;;36.00;33.00;;;;;7.46;64.29;103197.94;5019641;28;45483;-70
2022/03/18 02:41:00;;;;;;;;;37.33;33.00;;;;;7.61;64.76;103241.44;5019222;28;46068;-69
2022/03/18 02:43:25;;;;;;;;;37.50;32.75;;;;;7.59;64.86;103235.34;5000774;28;45447;-70
2022/03/18 02:45:51;;;;;;;;;42.25;35.00;;;;;7.50;65.67;103222.50;5019091;28;45761;-70
2022/03/18 02:48:17;;;;;;;;;44.25;36.25;;;;;7.47;65.45;103226.13;5002183;28;45268;-72
2022/03/18 02:50:42;;;;;;;;;43.00;35.00;;;;;7.47;65.09;103220.84;4981455;28;46210;-70
2022/03/18 02:53:07;;;;;;;;;37.33;28.33;;;;;7.57;64.94;103235.41;4989640;28;45480;-71
2022/03/18 02:55:33;;;;;;;;;36.75;34.75;;;;;7.58;65.06;103241.56;5019231;28;45233;-69
2022/03/18 02:57:58;;;;;;;;;38.75;32.50;;;;;7.40;65.26;103200.81;5019172;28;45551;-71
2022/03/18 03:00:25;;;;;;;;;35.25;30.00;;;;;7.73;64.22;103245.34;5000978;28;46822;-70
2022/03/18 03:02:51;;;;;;;;;43.33;35.33;;;;;7.65;64.71;103223.66;5018233;28;45494;-70
2022/03/18 03:08:00;;;;;;;;;52.00;38.25;;;;;7.71;64.09;103249.84;5019219;28;45287;-71
2022/03/18 03:10:30;;;;;;;;;40.25;35.25;;;;;7.73;64.55;103245.34;5018692;28;46210;-72
2022/03/18 03:12:58;;;;;;;;;42.67;37.00;;;;;7.66;64.20;103251.84;5018370;28;45475;-69
2022/03/18 03:15:23;;;;;;;;;39.33;36.00;;;;;7.66;63.63;103243.91;5018453;28;45553;-71
2022/03/18 03:17:48;;;;;;;;;48.50;39.00;;;;;7.58;64.11;103242.41;5018634;28;45364;-70
2022/03/18 03:20:15;;;;;;;;;27.25;27.25;;;;;7.58;64.16;103242.41;5018495;28;45436;-69
2022/03/18 03:22:40;;;;;;;;;40.50;36.75;;;;;7.55;64.47;103261.06;5018490;28;45265;-70
2022/03/18 03:25:06;;;;;;;;;46.75;37.50;;;;;7.59;64.36;103265.31;5000806;28;45310;-71
2022/03/18 03:27:31;;;;;;;;;45.00;36.50;;;;;7.49;64.19;103261.34;5018527;28;45374;-70
2022/03/18 03:29:59;;;;;;;;;50.00;39.75;;;;;7.54;65.06;103280.53;5018240;28;46245;-70
2022/03/18 03:32:25;;;;;;;;;40.33;33.00;;;;;7.50;64.70;103283.38;5018114;28;45649;-69
2022/03/18 03:34:50;;;;;;;;;45.00;37.00;;;;;7.56;64.48;103291.06;5000489;28;45393;-72
2022/03/18 03:37:16;;;;;;;;;46.75;39.75;;;;;7.08;64.54;103198.63;5018688;28;45395;-70
2022/03/18 03:39:41;;;;;;;;;50.00;41.00;;;;;7.46;64.71;103266.75;4999898;28;47113;-70
2022/03/18 03:42:07;;;;;;;;;49.00;39.75;;;;;7.49;65.39;103279.00;5000365;28;45297;-70
2022/03/18 03:44:32;;;;;;;;;50.25;42.00;;;;;7.30;64.59;103255.06;5000054;28;45282;-71
2022/03/18 03:46:57;;;;;;;;;54.50;43.25;;;;;7.40;64.53;103252.88;5010122;28;45510;-71
2022/03/18 03:49:23;;;;;;;;;57.50;44.50;;;;;7.54;64.95;103269.94;4998365;28;45971;-71
2022/03/18 03:51:48;;;;;;;;;52.50;43.25;;;;;7.56;64.29;103265.44;4998687;28;45207;-71
2022/03/18 03:54:13;;;;;;;;;51.75;41.50;;;;;7.42;64.72;103238.69;4996340;28;45802;-69
2022/03/18 03:56:39;;;;;;;;;54.75;43.75;;;;;7.52;64.37;103269.16;5000263;28;45274;-70
2022/03/18 03:59:04;;;;;;;;;54.50;44.75;;;;;7.46;64.05;103280.00;5000170;28;48251;-71
2022/03/18 04:01:29;;;;;;;;;55.25;46.25;;;;;7.30;65.08;103279.75;5000155;28;45483;-71
2022/03/18 04:03:55;;;;;;;;;41.75;36.25;;;;;6.71;65.03;103200.06;4999939;28;45503;-71
2022/03/18 04:06:20;;;;;;;;;50.75;40.00;;;;;7.25;64.69;103292.28;5000479;28;45580;-69
2022/03/18 04:08:47;;;;;;;;;45.75;38.00;;;;;7.26;64.50;103290.50;4999808;28;47427;-73
2022/03/18 04:11:12;;;;;;;;;51.50;40.25;;;;;7.25;64.76;103305.53;4999546;28;45514;-69
2022/03/18 04:13:38;;;;;;;;;46.75;38.25;;;;;7.23;64.54;103298.56;5017972;28;45364;-69
2022/03/18 04:16:03;;;;;;;;;42.75;36.75;;;;;7.31;64.58;103293.81;5018016;28;45431;-72
2022/03/18 04:18:29;;;;;;;;;43.25;36.00;;;;;7.36;64.54;103293.63;5017127;28;46636;-72
2022/03/18 04:20:54;;;;;;;;;40.75;37.25;;;;;7.22;63.98;103294.22;5017601;28;45417;-71
2022/03/18 04:23:20;;;;;;;;;43.75;36.50;;;;;7.03;64.61;103290.53;5017636;28;45335;-70
2022/03/18 04:25:45;;;;;;;;;43.50;39.00;;;;;7.08;64.66;103294.72;5017919;28;45717;-71
2022/03/18 04:28:11;;;;;;;;;39.25;35.00;;;;;7.12;64.58;103311.34;4999753;28;47857;-71
2022/03/18 04:30:36;;;;;;;;;41.33;35.00;;;;;7.02;64.37;103294.97;5017511;28;45261;-72
2022/03/18 04:33:02;;;;;;;;;34.00;33.25;;;;;6.97;65.26;103289.84;5016577;28;45352;-71
2022/03/18 04:35:31;;;;;;;;;38.00;32.33;;;;;7.01;64.67;103319.69;5000052;28;45460;-69
2022/03/18 04:37:57;;;;;;;;;22.33;18.67;;;;;7.00;64.64;103302.94;5017374;28;45741;-70
2022/03/18 04:40:22;;;;;;;;;38.25;34.00;;;;;7.12;63.90;103328.06;5017404;28;45518;-70
2022/03/18 04:42:48;;;;;;;;;31.50;28.00;;;;;6.94;65.08;103313.75;5017465;28;45674;-71
2022/03/18 04:45:16;;;;;;;;;39.00;35.50;;;;;6.78;64.89;103302.03;5017941;28;45426;-70
2022/03/18 04:47:42;;;;;;;;;40.75;34.75;;;;;7.03;65.10;103328.44;5002303;28;46866;-70
2022/03/18 04:50:09;;;;;;;;;45.00;36.50;;;;;6.76;65.20;103308.28;5013465;28;45543;-68
2022/03/18 04:52:35;;;;;;;;;32.00;32.00;;;;;6.74;65.22;103340.06;5017171;28;45335;-69
2022/03/18 04:55:00;;;;;;;;;38.25;35.25;;;;;6.66;65.73;103334.22;5017317;28;45541;-68
2022/03/18 04:57:26;;;;;;;;;41.00;36.00;;;;;6.65;65.85;103319.28;4999310;28;48631;-70
2022/03/18 04:59:52;;;;;;;;;34.67;33.67;;;;;6.56;65.41;103322.22;5001354;28;45270;-71
2022/03/18 05:02:20;;;;;;;;;42.33;37.00;;;;;6.55;65.48;103326.66;4997561;28;45284;-71
2022/03/18 05:04:48;;;;;;;;;33.33;30.00;;;;;6.23;64.96;103258.25;4997503;28;45436;-71
2022/03/18 05:07:14;;;;;;;;;43.25;35.50;;;;;6.53;65.12;103319.69;4995595;28;48426;-72
2022/03/18 05:09:41;;;;;;;;;36.25;34.75;;;;;6.53;65.51;103335.56;4992722;28;45656;-70
2022/03/18 05:12:08;;;;;;;;;38.50;34.50;;;;;6.55;65.76;103325.78;5017347;28;45354;-70
2022/03/18 05:14:35;;;;;;;;;34.75;31.25;;;;;6.55;65.71;103341.66;5017315;28;45510;-71
2022/03/18 05:17:01;;;;;;;;;45.25;37.25;;;;;6.66;65.24;103350.06;5003590;28;45515;-70
2022/03/18 05:19:26;;;;;;;;;39.00;32.00;;;;;6.74;65.00;103353.28;5008413;28;45163;-70
2022/03/18 05:21:52;;;;;;;;;34.67;32.33;;;;;6.75;64.50;103348.88;4999141;28;45656;-70
2022/03/18 05:24:17;;;;;;;;;41.25;35.00;;;;;6.60;64.20;103339.69;4999098;28;45222;-71
2022/03/18 05:26:43;;;;;;;;;37.00;34.50;;;;;6.64;64.29;103357.19;5016837;28;45606;-72
2022/03/18 05:29:09;;;;;;;;;40.25;35.75;;;;;6.63;64.32;103369.56;5016457;28;45344;-68
2022/03/18 05:31:36;;;;;;;;;37.50;32.75;;;;;6.50;64.54;103341.81;4998605;28;45465;-72
2022/03/18 05:34:01;;;;;;;;;35.75;34.25;;;;;6.48;64.63;103351.59;5016868;28;45520;-70
2022/03/18 05:36:27;;;;;;;;;36.00;33.67;;;;;6.52;65.02;103354.97;5015839;28;45484;-70
2022/03/18 05:38:52;;;;;;;;;26.50;25.00;;;;;6.35;64.76;103361.72;4998080;28;45768;-71
2022/03/18 05:41:18;;;;;;;;;39.25;33.25;;;;;6.35;64.74;103360.84;4998727;28;45393;-71
2022/03/18 05:43:43;;;;;;;;;33.50;29.00;;;;;6.37;64.90;103370.44;5016569;28;45392;-70
2022/03/18 05:46:11;;;;;;;;;30.00;28.67;;;;;6.27;64.29;103363.75;5016563;28;46569;-69
2022/03/18 05:48:36;;;;;;;;;42.33;31.33;;;;;6.35;65.21;103364.34;5016135;28;45387;-69
2022/03/18 05:51:02;;;;;;;;;33.25;29.75;;;;;6.27;64.73;103363.75;5016081;28;45238;-69
2022/03/18 05:53:28;;;;;;;;;40.00;32.67;;;;;6.23;64.17;103378.00;4998583;28;45155;-70
2022/03/18 05:58:38;;;;;;;;;28.67;27.00;;;;;6.18;64.58;103369.34;5015982;28;45365;-70
2022/03/18 06:01:04;;;;;;;;;31.33;26.33;;;;;6.06;65.02;103348.63;5016433;28;45494;-70
2022/03/18 06:03:29;;;;;;;;;28.33;26.00;;;;;6.10;65.05;103352.91;5019381;28;45322;-71
2022/03/18 06:05:55;;;;;;;;;29.33;25.67;;;;;6.21;64.02;103350.78;5019147;28;45851;-70
2022/03/18 06:13:48;;;;;;;;;34.00;31.33;;;;;6.18;63.39;103342.91;5016653;28;45493;-71
2022/03/18 06:16:13;;;;;;;;;46.67;35.67;;;;;6.37;62.56;103359.00;5001163;28;47634;-70
2022/03/18 06:18:39;;;;;;;;;32.00;30.00;;;;;6.18;62.77;103331.50;5019486;28;45254;-70
2022/03/18 06:21:08;;;;;;;;;30.33;27.33;;;;;6.48;62.82;103383.31;5019282;28;45476;-70
2022/03/18 06:23:34;;;;;;;;;29.00;26.67;;;;;6.46;61.79;103365.78;5001632;28;45654;-70
2022/03/18 06:26:01;;;;;;;;;26.00;22.67;;;;;6.53;61.40;103369.91;5000826;28;47617;-70
2022/03/18 06:28:31;;;;;;;;;32.00;27.00;;;;;6.62;62.39;103388.13;5018942;28;45595;-69
2022/03/18 06:30:56;;;;;;;;;29.33;26.00;;;;;6.29;61.33;103330.22;5013821;28;45395;-70
2022/03/18 06:33:21;;;;;;;;;31.00;29.67;;;;;6.56;61.39;103385.66;4993776;28;45194;-70
2022/03/18 06:35:47;;;;;;;;;31.67;28.00;;;;;6.68;61.38;103395.81;5019228;28;45610;-70
2022/03/18 06:38:12;;;;;;;;;26.33;26.33;;;;;6.66;61.79;103382.66;5018728;28;45404;-69
2022/03/18 06:40:37;;;;;;;;;32.33;28.67;;;;;5.97;61.32;103260.00;5017527;28;45480;-71
2022/03/18 06:43:03;;;;;;;;;30.00;28.00;;;;;6.61;61.15;103360.81;5018708;28;45335;-70
2022/03/18 06:45:28;;;;;;;;;28.67;26.00;;;;;6.17;61.05;103293.66;5017516;28;45762;-73
2022/03/18 06:47:54;;;;;;;;;31.67;26.00;;;;;6.59;60.61;103361.75;4985366;28;45453;-72
2022/03/18 06:50:20;;;;;;;;;38.75;34.75;;;;;6.90;60.36;103404.72;5026581;28;45756;-71
2022/03/18 06:52:46;;;;;;;;;30.50;26.25;;;;;6.91;59.85;103387.06;5039078;28;45514;-72
2022/03/18 06:55:11;;;;;;;;;18.33;17.00;;;;;6.79;61.09;103376.91;5017691;28;47449;-69
2022/03/18 06:57:36;;;;;;;;;34.33;31.33;;;;;6.81;60.26;103364.50;5018735;28;46023;-73
2022/03/18 07:00:04;;;;;;;;;34.00;28.33;;;;;7.12;60.29;103385.41;5018821;28;45464;-70
2022/03/18 07:02:29;;;;;;;;;29.00;28.67;;;;;7.15;60.09;103395.88;5018223;28;45523;-70
2022/03/18 07:04:55;;;;;;;;;29.67;28.67;;;;;7.25;59.94;103387.56;5000600;28;47703;-71
2022/03/18 07:07:20;;;;;;;;;30.00;28.00;;;;;7.10;59.51;103335.22;5018565;28;45325;-71
2022/03/18 07:09:46;;;;;;;;;29.67;26.33;;;;;7.43;58.92;103393.94;5018657;28;45224;-71
2022/03/18 07:12:11;;;;;;;;;33.67;28.00;;;;;7.41;58.53;103371.97;5018435;28;45506;-70
2022/03/18 07:14:36;;;;;;;;;32.00;25.67;;;;;7.52;58.00;103384.75;5017981;28;45575;-70
2022/03/18 07:19:46;;;;;;;;;22.00;20.33;;;;;7.75;57.25;103391.78;5018334;28;45511;-75
2022/03/18 07:22:12;;;;;;;;;21.67;18.67;;;;;7.89;56.33;103400.06;5001375;28;45286;-82
2022/03/18 07:24:37;;;;;;;;;25.00;23.67;;;;;8.01;55.53;103388.97;5001626;28;46504;-74
2022/03/18 07:27:03;;;;;;;;;22.33;22.00;;;;;7.99;54.46;103364.31;5000088;28;45499;-74
2022/03/18 07:29:28;;;;;;;;;31.67;28.67;;;;;8.32;54.14;103385.91;4999749;28;45490;-68
2022/03/18 07:31:55;;;;;;;;;27.33;24.33;;;;;8.57;54.26;103390.19;5018233;28;45332;-69
2022/03/18 07:34:23;;;;;;;;;22.33;17.33;;;;;8.84;52.67;103379.25;4999814;28;47529;-70
2022/03/18 07:36:49;;;;;;;;;29.00;27.67;;;;;9.11;51.83;103376.25;5017661;28;45190;-70
2022/03/18 07:39:14;;;;;;;;;26.67;25.67;;;;;9.40;50.89;103381.06;5017762;28;45259;-70
2022/03/18 07:41:41;;;;;;;;;28.00;26.67;;;;;9.86;50.23;103378.88;5018024;28;45344;-70
2022/03/18 07:44:10;;;;;;;;;32.33;28.33;;;;;10.43;48.38;103384.94;5000580;28;47873;-70
2022/03/18 07:46:37;;;;;;;;;28.67;21.00;;;;;11.09;47.15;103398.28;5017485;28;45410;-72
2022/03/18 07:49:03;;;;;;;;;25.00;22.00;;;;;11.84;45.06;103400.34;5018336;28;45454;-71
2022/03/18 07:51:30;;;;;;;;;25.00;23.00;;;;;12.58;44.80;103386.19;5016972;28;45272;-70
2022/03/18 07:53:56;;;;;;;;;35.33;29.00;;;;;13.36;42.11;103392.94;5029456;28;45730;-70
2022/03/18 07:56:22;;;;;;;;;28.33;27.33;;;;;14.35;40.03;103385.53;5025593;28;45544;-70
2022/03/18 07:58:47;;;;;;;;;30.00;26.00;;;;;14.83;38.20;103370.63;5037437;28;45474;-71
2022/03/18 08:01:13;;;;;;;;;29.00;26.67;;;;;15.47;37.04;103382.09;5024033;28;45551;-71
2022/03/18 08:03:38;;;;;;;;;28.00;27.00;;;;;15.66;36.46;103388.81;5017015;28;45903;-72
2022/03/18 08:06:03;;;;;;;;;30.00;29.33;;;;;15.27;36.26;103389.84;5016744;28;45588;-71
2022/03/18 08:08:30;;;;;;;;;29.00;24.00;;;;;14.55;37.87;103370.81;5017377;28;45319;-73
2022/03/18 08:10:57;;;;;;;;;27.67;25.33;;;;;14.56;37.75;103393.94;4998224;28;45828;-72
2022/03/18 08:13:23;;;;;;;;;29.00;27.33;;;;;14.86;37.42;103374.91;5016517;28;45667;-72
2022/03/18 08:15:49;;;;;;;;;36.67;28.67;;;;;15.66;36.06;103391.50;5016261;28;45587;-70
2022/03/18 08:18:15;;;;;;;;;27.67;23.00;;;;;15.60;35.92;103387.41;5017120;28;45240;-73
2022/03/18 08:20:41;;;;;;;;;23.33;23.33;;;;;15.46;35.71;103393.78;5017268;28;45296;-73
2022/03/18 08:23:12;;;;;;;;;30.33;22.00;;;;;15.26;35.63;103361.34;5015219;28;45669;-71
2022/03/18 08:25:38;;;;;;;;;26.33;23.67;;;;;15.60;35.35;103402.66;5015512;28;45533;-71
2022/03/18 08:28:05;;;;;;;;;21.33;19.67;;;;;15.73;35.12;103371.28;4999094;28;45462;-70
2022/03/18 08:30:30;;;;;;;;;26.00;23.00;;;;;16.03;34.46;103406.56;5016852;28;45506;-72
2022/03/18 08:32:56;;;;;;;;;26.00;23.33;;;;;15.91;34.24;103394.06;5016695;28;45767;-71
2022/03/18 08:35:24;;;;;;;;;22.67;20.67;;;;;15.64;34.93;103414.88;5016492;28;45281;-72
2022/03/18 08:37:56;;;;;;;;;24.67;21.67;;;;;15.56;34.63;103412.72;5017077;28;45428;-73
2022/03/18 08:40:22;;;;;;;;;26.00;22.00;;;;;15.43;35.41;103406.56;4999634;28;45484;-71
2022/03/18 08:42:49;;;;;;;;;29.00;22.00;;;;;15.02;35.98;103390.75;5012797;28;46024;-70
2022/03/18 08:45:15;;;;;;;;;29.67;25.67;;;;;15.14;35.52;103403.25;5009480;28;45508;-71
2022/03/18 08:47:40;;;;;;;;;27.00;24.00;;;;;15.56;35.33;103410.03;4997980;28;45535;-72
2022/03/18 08:50:09;;;;;;;;;23.67;22.33;;;;;15.59;34.62;103411.66;5014186;28;45398;-72
2022/03/18 08:52:34;;;;;;;;;28.00;25.33;;;;;15.42;35.04;103399.47;4998946;28;47139;-70
2022/03/18 08:55:03;;;;;;;;;21.00;19.67;;;;;15.46;34.54;103392.91;4997392;28;45601;-78
2022/03/18 08:57:31;;;;;;;;;25.00;22.33;;;;;15.46;34.66;103388.41;4998654;28;45375;-72
2022/03/18 08:59:56;;;;;;;;;26.00;22.33;;;;;15.69;34.67;103405.53;5013502;28;45536;-68
2022/03/18 09:02:22;;;;;;;;;27.67;22.67;;;;;15.60;34.74;103406.19;4995851;28;46553;-68
2022/03/18 09:04:50;;;;;;;;;18.33;18.00;;;;;15.81;34.14;103406.44;5014031;28;45373;-68
2022/03/18 09:07:20;;;;;;;;;23.67;19.67;;;;;15.96;33.26;103405.31;4997224;28;45342;-71
2022/03/18 09:09:52;;;;;;;;;28.00;26.33;;;;;16.01;32.51;103360.19;4997530;28;45354;-70
2022/03/18 09:12:24;;;;;;;;;21.33;21.33;;;;;15.97;32.37;103377.50;5013642;28;45871;-71
2022/03/18 09:14:51;;;;;;;;;20.67;18.67;;;;;15.60;32.62;103381.19;5016841;28;45409;-68
2022/03/18 09:17:18;;;;;;;;;22.00;21.00;;;;;15.56;32.86;103336.78;5016999;28;45217;-71
2022/03/18 09:20:05;;;;;;;;;;;;;;;;;;;;;
2022/03/18 09:22:46;;;;;;;;;21.33;20.67;;;;;16.21;32.20;103380.16;5017414;28;75137;-67
2022/03/18 09:25:14;;;;;;;;;17.67;17.67;;;;;16.54;30.34;103362.44;5016196;28;45490;-71
2022/03/18 09:27:40;;;;;;;;;19.00;17.00;;;;;16.13;30.70;103337.81;5017325;28;45441;-68
2022/03/18 09:30:08;;;;;;;;;20.67;15.33;;;;;16.23;30.45;103393.50;4998125;28;45561;-68
2022/03/18 09:32:33;;;;;;;;;19.00;15.33;;;;;16.66;30.48;103399.97;5007058;28;45819;-67
2022/03/18 09:34:59;;;;;;;;;13.00;12.00;;;;;16.95;28.53;103408.44;5020472;28;45490;-66
2022/03/18 09:37:24;;;;;;;;;15.33;15.00;;;;;17.62;27.92;103399.50;5006795;28;45593;-68
2022/03/18 09:39:50;;;;;;;;;23.67;19.00;;;;;18.18;26.83;103399.31;5012052;28;45461;-68
2022/03/18 09:42:15;;;;;;;;;20.33;19.33;;;;;18.66;25.43;103393.47;4995659;28;45637;-68
2022/03/18 09:44:41;;;;;;;;;21.33;17.67;;;;;19.11;25.16;103399.38;4978461;28;45588;-68
2022/03/18 09:47:08;;;;;;;;;14.33;14.33;;;;;20.01;24.19;103402.88;4996257;28;45231;-68
2022/03/18 09:49:36;;;;;;;;;19.67;19.67;;;;;20.82;23.16;103381.75;4996233;28;45297;-68
2022/03/18 09:52:03;;;;;;;;;21.67;17.00;;;;;21.32;22.30;103324.59;5015204;28;45754;-67
2022/03/18 09:54:30;;;;;;;;;16.33;15.33;;;;;22.14;21.00;103402.97;4996195;28;45886;-68
2022/03/18 09:56:56;;;;;;;;;18.00;16.33;;;;;21.69;20.87;103397.56;5014635;28;45640;-67
2022/03/18 09:59:24;;;;;;;;;17.67;16.33;;;;;20.81;22.02;103393.53;5015556;28;45262;-68
2022/03/18 10:02:10;;;;;;;;;15.67;15.00;;;;;20.29;22.71;103395.78;5015117;28;45753;-67
2022/03/18 10:04:51;;;;;;;;;16.67;16.67;;;;;20.70;23.38;103393.75;5014051;28;45518;-68
2022/03/18 10:07:16;;;;;;;;;20.33;19.33;;;;;20.52;23.13;103398.19;5012745;28;45419;-68
2022/03/18 10:09:42;;;;;;;;;16.00;14.67;;;;;20.20;23.68;103402.00;5016089;28;45154;-68
2022/03/18 10:12:26;;;;;;;;;12.00;12.00;;;;;19.18;23.57;103380.78;5015651;28;45541;-67
2022/03/18 10:15:04;;;;;;;;;16.00;16.00;;;;;18.40;24.86;103353.41;4997186;28;45636;-69
2022/03/18 10:17:59;;;;;;;;;16.33;13.33;;;;;17.81;26.21;103388.06;5015101;28;45411;-75
2022/03/18 10:20:26;;;;;;;;;9.00;9.00;;;;;17.10;26.25;103398.31;4997035;28;45400;-70
2022/03/18 10:22:53;;;;;;;;;14.67;14.67;;;;;16.25;27.08;103399.59;5013316;28;46091;-70
2022/03/18 10:25:37;;;;;;;;;14.67;13.00;;;;;15.72;27.39;103305.22;5015618;28;45265;-78
2022/03/18 10:28:07;;;;;;;;;17.33;17.33;;;;;15.48;28.60;103394.50;4997991;28;45503;-68
2022/03/18 10:30:34;;;;;;;;;14.33;14.00;;;;;14.83;29.57;103386.69;5015838;28;45415;-67
2022/03/18 10:32:59;;;;;;;;;15.00;13.00;;;;;14.51;30.21;103377.34;5014011;28;47538;-67
2022/03/18 10:38:33;;;;;;;;;17.67;13.67;;;;;14.42;30.46;103381.50;5015896;28;45341;-69
2022/03/18 10:41:07;;;;;;;;;11.33;10.67;;;;;14.04;30.59;103381.41;5015249;28;45386;-68
2022/03/18 10:43:55;;;;;;;;;14.67;14.67;;;;;13.88;29.99;103386.03;5014035;28;46391;-69
2022/03/18 10:46:21;;;;;;;;;14.33;13.67;;;;;13.68;30.33;103390.03;5015212;28;45372;-69
2022/03/18 10:49:05;;;;;;;;;23.00;18.33;;;;;13.51;30.30;103376.88;5016332;28;45378;-70
2022/03/18 10:51:33;;;;;;;;;11.00;10.00;;;;;13.18;29.68;103347.81;5000597;28;45211;-70
2022/03/18 10:53:59;;;;;;;;;12.33;12.33;;;;;13.27;30.14;103385.50;5018299;28;45999;-69
2022/03/18 10:56:26;;;;;;;;;15.33;13.00;;;;;13.01;29.59;103333.72;5017754;28;45407;-69
2022/03/18 10:58:51;;;;;;;;;15.00;12.00;;;;;13.25;30.39;103386.56;5018234;28;45269;-69
2022/03/18 11:01:19;;;;;;;;;17.67;14.00;;;;;12.89;29.81;103304.25;5011393;28;45616;-70
2022/03/18 11:03:45;;;;;;;;;13.33;12.67;;;;;13.23;29.79;103367.13;4996653;28;46865;-69
2022/03/18 11:06:12;;;;;;;;;16.00;14.00;;;;;13.10;29.77;103330.44;4999890;28;45395;-71
2022/03/18 11:08:54;;;;;;;;;14.33;14.00;;;;;12.91;29.33;103337.91;4999315;28;45503;-71
2022/03/18 11:11:44;;;;;;;;;15.00;14.00;;;;;12.82;29.22;103335.81;5016870;28;45401;-71
2022/03/18 11:14:11;;;;;;;;;11.00;10.00;;;;;12.34;27.92;103249.81;5010211;28;46786;-72
2022/03/18 11:16:40;;;;;;;;;10.33;10.33;;;;;12.72;27.67;103369.34;5017771;28;45424;-70
2022/03/18 11:19:09;;;;;;;;;13.33;11.33;;;;;12.81;28.47;103374.13;5016016;28;45423;-69
2022/03/18 11:21:36;;;;;;;;;8.33;8.33;;;;;12.87;28.10;103365.75;5011366;28;45313;-72
2022/03/18 11:24:14;;;;;;;;;13.00;11.00;;;;;12.91;29.36;103371.75;5016039;28;46313;-70
2022/03/18 11:26:49;;;;;;;;;16.00;15.67;;;;;12.91;29.28;103337.91;5017219;28;45478;-71
2022/03/18 11:29:20;;;;;;;;;9.00;8.00;;;;;13.17;30.01;103362.09;5018142;28;45245;-70
2022/03/18 11:32:11;;;;;;;;;15.67;14.33;;;;;13.08;30.24;103364.41;5016885;28;45353;-71
2022/03/18 11:34:58;;;;;;;;;14.00;12.00;;;;;12.95;30.66;103358.13;4999225;28;48118;-71
2022/03/18 11:37:28;;;;;;;;;12.00;11.00;;;;;12.76;30.61;103317.50;4999487;28;45491;-70
2022/03/18 11:40:19;;;;;;;;;15.67;14.00;;;;;13.10;30.51;103373.19;4999677;28;45363;-70